Time;durP1;ratioP1;P1;durP2;ratioP2;P2;SDS_P1;SDS_P2;PMS_P1;PMS_P2;Temp;Humidity;BMP_temperature;BMP_pressure;BME280_temperature;BME280_humidity;BME280_pressure;Samples;Min_cycle;Max_cycle;Signal;HPM_P1;HPM_P2
2022/01/23 00:01:45;;;;;;;9.95;5.82;;;3.70;89.10;;;;;;5052819;28;20229;-60
2022/01/23 00:04:12;;;;;;;11.07;6.53;;;3.80;89.00;;;;;;5052823;28;20233;-60
2022/01/23 00:06:40;;;;;;;7.22;5.00;;;3.90;89.00;;;;;;5052646;28;20674;-60
2022/01/23 00:09:07;;;;;;;11.02;5.78;;;3.80;87.70;;;;;;5052754;28;20652;-58
2022/01/23 00:11:39;;;;;;;9.45;5.82;;;3.70;88.00;;;;;;5052506;28;20225;-60
2022/01/23 00:19:35;;;;;;;9.77;5.45;;;3.70;87.10;;;;;;5052749;28;20204;-60
2022/01/23 00:22:03;;;;;;;9.13;5.60;;;3.80;87.50;;;;;;5052526;28;20197;-61
2022/01/23 00:32:43;;;;;;;10.85;5.93;;;4.00;86.50;;;;;;5052574;28;20307;-60
2022/01/23 00:35:10;;;;;;;12.82;6.13;;;3.90;86.50;;;;;;5052553;28;20559;-60
2022/01/23 00:37:38;;;;;;;8.82;6.03;;;3.80;86.80;;;;;;5052517;28;20292;-60
2022/01/23 00:40:07;;;;;;;9.55;6.25;;;3.90;87.90;;;;;;5052444;28;20630;-60
2022/01/23 00:42:35;;;;;;;9.23;5.90;;;4.00;87.10;;;;;;5052315;28;20212;-59
2022/01/23 00:45:15;;;;;;;8.82;5.78;;;4.00;86.80;;;;;;5050938;28;20283;-59
2022/01/23 00:47:42;;;;;;;9.75;5.70;;;4.10;87.00;;;;;;5052427;28;20205;-59
2022/01/23 00:50:09;;;;;;;7.82;5.47;;;4.30;87.60;;;;;;5052409;28;20211;-60
2022/01/23 00:52:38;;;;;;;8.70;5.68;;;4.30;85.90;;;;;;5052327;28;20212;-57
2022/01/23 00:55:05;;;;;;;9.00;5.57;;;4.40;86.70;;;;;;5052347;28;20208;-59
2022/01/23 00:57:33;;;;;;;11.35;5.72;;;4.30;84.90;;;;;;5052312;28;20201;-59
2022/01/23 01:00:00;;;;;;;10.77;6.63;;;4.40;86.60;;;;;;5050795;28;20574;-57
2022/01/23 01:02:28;;;;;;;7.35;5.60;;;4.50;86.50;;;;;;5052250;28;20206;-59
2022/01/23 01:04:55;;;;;;;8.52;6.20;;;4.40;85.20;;;;;;5052250;28;20358;-60
2022/01/23 01:07:22;;;;;;;10.07;6.07;;;4.40;85.00;;;;;;5052312;28;20201;-56
2022/01/23 01:09:53;;;;;;;9.32;5.75;;;4.40;84.80;;;;;;5052093;28;20540;-60
2022/01/23 01:12:25;;;;;;;7.32;4.65;;;4.30;85.70;;;;;;5052037;28;20237;-57
2022/01/23 01:15:23;;;;;;;11.95;6.40;;;4.40;86.30;;;;;;5050951;28;20303;-58
2022/01/23 01:31:34;;;;;;;9.75;6.05;;;4.40;86.60;;;;;;5055577;28;20721;-59
2022/01/23 01:34:06;;;;;;;9.38;6.20;;;4.60;86.60;;;;;;5055607;28;20213;-59
2022/01/23 01:36:38;;;;;;;10.82;6.15;;;4.80;86.20;;;;;;5055555;28;20599;-59
2022/01/23 01:39:06;;;;;;;9.07;6.45;;;5.00;85.50;;;;;;5055476;28;20202;-59
2022/01/23 01:41:37;;;;;;;9.70;6.32;;;5.10;85.30;;;;;;5055422;28;20216;-57
2022/01/23 01:44:04;;;;;;;10.35;5.82;;;5.10;84.50;;;;;;5054061;28;20205;-59
2022/01/23 01:46:31;;;;;;;7.97;5.70;;;4.80;83.00;;;;;;5055215;28;20225;-59
2022/01/23 01:48:58;;;;;;;9.18;5.95;;;4.60;84.30;;;;;;5055192;28;20678;-58
2022/01/23 01:51:30;;;;;;;11.63;5.32;;;4.70;85.50;;;;;;5055189;28;20721;-59
2022/01/23 01:54:04;;;;;;;10.45;6.70;;;4.80;84.70;;;;;;5058901;28;20216;-59
2022/01/23 01:56:38;;;;;;;10.45;6.47;;;4.70;83.90;;;;;;5075164;28;20208;-59
2022/01/23 01:59:19;;;;;;;8.98;5.85;;;4.70;85.00;;;;;;5073720;28;20266;-60
2022/01/23 02:10:03;;;;;;;13.38;6.88;;;5.20;84.40;;;;;;5074931;28;20204;-57
2022/01/23 02:12:59;;;;;;;13.55;7.78;;;5.20;84.10;;;;;;5074661;28;20270;-58
2022/01/23 02:18:23;;;;;;;14.52;7.88;;;5.20;84.00;;;;;;5041217;28;20197;-59
2022/01/23 02:24:00;;;;;;;14.85;7.75;;;5.20;84.10;;;;;;5074561;28;20246;-59
2022/01/23 02:51:56;;;;;;;13.52;8.05;;;5.10;83.90;;;;;;5012160;28;20191;-56
2022/01/23 02:54:44;;;;;;;14.63;8.50;;;5.00;85.00;;;;;;5065053;28;20227;-59
2022/01/23 02:57:11;;;;;;;12.80;7.93;;;5.10;85.20;;;;;;5073965;28;20201;-60
2022/01/23 02:59:40;;;;;;;16.13;9.32;;;5.10;84.80;;;;;;5072389;28;20307;-60
2022/01/23 03:02:23;;;;;;;16.10;8.73;;;5.00;84.70;;;;;;5073804;28;20238;-56
2022/01/23 03:04:52;;;;;;;14.35;9.10;;;4.80;84.90;;;;;;5073514;28;20221;-60
2022/01/23 03:07:36;;;;;;;15.35;8.43;;;4.90;85.60;;;;;;5073688;28;20204;-61
2022/01/23 03:10:09;;;;;;;12.13;7.25;;;5.00;85.60;;;;;;5073653;28;20663;-57
2022/01/23 03:15:42;;;;;;;11.75;7.90;;;5.10;85.20;;;;;;5072306;28;20216;-57
2022/01/23 03:26:30;;;;;;;12.77;7.30;;;5.00;84.30;;;;;;5073397;28;20235;-59
2022/01/23 03:31:43;;;;;;;15.90;8.30;;;5.10;85.30;;;;;;5073317;28;20277;-59
2022/01/23 03:34:11;;;;;;;14.82;7.90;;;5.20;85.20;;;;;;5073126;28;20215;-57
2022/01/23 03:36:38;;;;;;;12.98;7.22;;;5.30;84.80;;;;;;5073259;28;20243;-59
2022/01/23 03:39:09;;;;;;;14.30;8.10;;;5.30;84.30;;;;;;5073286;28;20200;-56
2022/01/23 03:41:39;;;;;;;13.65;7.90;;;5.30;84.40;;;;;;5072785;28;20212;-59
2022/01/23 03:44:08;;;;;;;12.73;8.02;;;5.40;84.40;;;;;;5071675;28;20299;-58
2022/01/23 03:46:48;;;;;;;12.77;8.20;;;5.40;84.40;;;;;;5072997;28;20232;-59
2022/01/23 03:49:31;;;;;;;14.48;8.73;;;5.50;84.30;;;;;;5072997;28;20200;-58
2022/01/23 03:51:59;;;;;;;11.98;7.75;;;5.50;84.20;;;;;;5073157;28;20208;-59
2022/01/23 03:54:27;;;;;;;16.98;8.57;;;5.50;84.10;;;;;;5072923;28;20205;-60
2022/01/23 03:56:56;;;;;;;14.00;8.02;;;5.40;83.70;;;;;;5072854;28;20209;-58
2022/01/23 03:59:23;;;;;;;14.45;8.50;;;5.40;84.10;;;;;;5071375;28;20224;-60
2022/01/23 04:01:50;;;;;;;13.35;8.35;;;5.50;84.20;;;;;;5072959;28;20211;-57
2022/01/23 04:04:31;;;;;;;13.15;8.50;;;5.40;84.10;;;;;;5072943;28;20204;-57
2022/01/23 04:06:58;;;;;;;13.48;8.50;;;5.50;84.20;;;;;;5072827;28;20232;-57
2022/01/23 04:09:25;;;;;;;15.23;8.27;;;5.50;84.10;;;;;;5072711;28;20622;-60
2022/01/23 04:11:52;;;;;;;15.90;9.52;;;5.50;84.10;;;;;;5072694;28;20271;-57
2022/01/23 04:14:23;;;;;;;16.85;9.55;;;5.50;83.70;;;;;;5071340;28;20211;-59
2022/01/23 04:17:17;;;;;;;14.20;8.82;;;5.50;83.80;;;;;;5072706;28;20255;-60
2022/01/23 04:19:59;;;;;;;15.70;8.98;;;5.30;83.30;;;;;;5072615;28;20667;-59
2022/01/23 04:33:51;;;;;;;16.50;9.93;;;5.40;84.30;;;;;;5047712;28;20320;-60
2022/01/23 05:01:05;;;;;;;17.48;10.50;;;5.50;83.50;;;;;;5074999;28;20254;-60
2022/01/23 05:06:30;;;;;;;19.42;11.23;;;5.50;83.60;;;;;;5075965;28;20699;-59
2022/01/23 05:08:57;;;;;;;18.73;10.30;;;5.50;83.40;;;;;;5076061;28;20204;-59
2022/01/23 05:11:24;;;;;;;18.30;11.00;;;5.50;83.50;;;;;;5075849;28;20232;-57
2022/01/23 05:13:51;;;;;;;16.60;11.18;;;5.50;83.60;;;;;;5074408;28;20251;-58
2022/01/23 05:16:19;;;;;;;18.90;10.20;;;5.50;83.20;;;;;;5075764;28;20287;-58
2022/01/23 05:18:48;;;;;;;17.67;10.23;;;5.50;83.60;;;;;;5075840;28;20201;-60
2022/01/23 05:21:40;;;;;;;17.85;9.90;;;5.50;83.60;;;;;;5075894;28;20632;-60
2022/01/23 05:24:07;;;;;;;15.68;9.60;;;5.50;83.60;;;;;;5075586;28;20239;-60
2022/01/23 05:26:42;;;;;;;16.08;9.90;;;5.60;83.50;;;;;;5075545;28;20328;-59
2022/01/23 05:29:09;;;;;;;17.35;10.48;;;5.60;83.50;;;;;;5074309;28;20220;-62
2022/01/23 05:31:36;;;;;;;21.35;11.23;;;5.60;83.40;;;;;;5075647;28;20210;-60
2022/01/23 05:34:05;;;;;;;19.58;11.05;;;5.60;82.90;;;;;;5075574;28;20291;-58
2022/01/23 05:36:32;;;;;;;16.02;9.98;;;5.50;83.30;;;;;;5075490;28;20207;-56
2022/01/23 05:38:59;;;;;;;18.27;10.40;;;5.50;83.20;;;;;;5075495;28;20622;-59
2022/01/23 05:41:27;;;;;;;20.90;10.40;;;5.60;83.40;;;;;;5075284;28;20207;-61
2022/01/23 05:43:53;;;;;;;18.40;10.65;;;5.60;83.40;;;;;;5073994;28;20652;-61
2022/01/23 05:46:20;;;;;;;16.83;10.02;;;5.60;83.40;;;;;;5075253;28;20319;-59
2022/01/23 05:48:47;;;;;;;18.15;9.85;;;5.60;83.30;;;;;;5075317;28;20295;-58
2022/01/23 05:51:15;;;;;;;17.88;9.65;;;5.60;83.30;;;;;;5075122;28;20292;-58
2022/01/23 05:53:42;;;;;;;20.00;11.50;;;5.60;83.10;;;;;;5075025;28;20207;-58
2022/01/23 05:56:10;;;;;;;18.13;10.93;;;5.50;82.40;;;;;;5075229;28;20205;-57
2022/01/23 05:58:37;;;;;;;18.35;10.88;;;5.30;82.80;;;;;;5074994;28;20228;-59
2022/01/23 06:01:05;;;;;;;17.55;10.35;;;5.40;83.60;;;;;;5074099;28;20283;-58
2022/01/23 06:03:32;;;;;;;19.30;10.63;;;5.30;83.30;;;;;;5075009;28;20205;-59
2022/01/23 06:05:59;;;;;;;17.17;10.60;;;5.20;83.60;;;;;;5074647;28;20238;-59
2022/01/23 06:08:27;;;;;;;19.73;10.43;;;5.20;84.10;;;;;;5074824;28;20211;-60
2022/01/23 06:10:56;;;;;;;17.02;10.15;;;5.30;84.30;;;;;;5074804;28;20235;-59
2022/01/23 06:13:24;;;;;;;18.95;10.55;;;5.40;84.00;;;;;;5074804;28;20762;-60
2022/01/23 06:15:51;;;;;;;19.52;10.77;;;5.40;84.00;;;;;;5073514;28;20216;-60
2022/01/23 06:18:18;;;;;;;20.30;11.05;;;5.50;83.90;;;;;;5074828;28;20211;-57
2022/01/23 06:20:45;;;;;;;20.08;11.02;;;5.50;83.70;;;;;;5074665;28;20204;-57
2022/01/23 06:23:12;;;;;;;21.55;11.40;;;5.50;83.70;;;;;;5074635;28;20655;-60
2022/01/23 06:25:43;;;;;;;17.52;10.32;;;5.60;83.40;;;;;;5074470;28;20220;-59
2022/01/23 06:28:11;;;;;;;22.17;11.45;;;5.60;83.20;;;;;;5074557;28;20207;-59
2022/01/23 06:30:39;;;;;;;16.50;10.45;;;5.60;83.20;;;;;;5073076;28;20566;-59
2022/01/23 06:33:06;;;;;;;16.90;10.65;;;5.60;83.20;;;;;;5074445;28;20212;-60
2022/01/23 06:35:35;;;;;;;19.90;10.90;;;5.60;83.10;;;;;;5074346;28;20205;-60
2022/01/23 06:38:02;;;;;;;20.63;11.75;;;5.60;83.00;;;;;;5074338;28;20292;-60
2022/01/23 06:40:29;;;;;;;18.48;11.00;;;5.60;82.70;;;;;;5074377;28;20217;-60
2022/01/23 06:42:57;;;;;;;18.00;11.25;;;5.50;82.60;;;;;;5074274;28;20300;-59
2022/01/23 06:45:24;;;;;;;20.23;11.88;;;5.40;83.00;;;;;;5072771;28;20220;-59
2022/01/23 06:47:51;;;;;;;21.27;12.15;;;5.30;83.40;;;;;;5074137;28;20210;-56
2022/01/23 06:50:18;;;;;;;19.63;11.85;;;5.20;83.60;;;;;;5073976;28;20256;-57
2022/01/23 06:52:45;;;;;;;23.50;12.63;;;5.20;83.90;;;;;;5074064;28;20211;-59
2022/01/23 06:55:12;;;;;;;26.08;11.88;;;5.30;84.10;;;;;;5073939;28;20681;-59
2022/01/23 06:57:38;;;;;;;28.35;13.35;;;5.30;84.10;;;;;;5073889;28;20225;-59
2022/01/23 07:00:08;;;;;;;22.92;12.82;;;5.40;83.90;;;;;;5072473;28;20208;-60
2022/01/23 07:02:35;;;;;;;18.73;11.38;;;5.50;83.80;;;;;;5073632;28;20648;-60
2022/01/23 07:05:01;;;;;;;21.83;11.40;;;5.40;83.40;;;;;;5073805;28;20789;-56
2022/01/23 07:07:28;;;;;;;21.70;12.00;;;5.40;83.70;;;;;;5073746;28;20232;-59
2022/01/23 07:09:55;;;;;;;20.63;11.95;;;5.40;84.00;;;;;;5073711;28;20211;-59
2022/01/23 07:12:22;;;;;;;20.20;12.18;;;5.50;83.80;;;;;;5073496;28;20229;-56
2022/01/23 07:14:49;;;;;;;24.90;11.73;;;5.60;83.70;;;;;;5072168;28;20205;-59
2022/01/23 07:17:17;;;;;;;22.45;12.30;;;5.60;83.50;;;;;;5072805;28;20307;-60
2022/01/23 07:19:44;;;;;;;20.63;12.27;;;5.60;83.40;;;;;;5073519;28;20300;-59
2022/01/23 07:22:11;;;;;;;22.25;12.50;;;5.70;83.40;;;;;;5073414;28;20296;-59
2022/01/23 07:24:38;;;;;;;22.83;11.57;;;5.70;83.20;;;;;;5073415;28;20200;-59
2022/01/23 07:27:13;;;;;;;21.80;11.80;;;5.70;83.20;;;;;;5073307;28;20240;-59
2022/01/23 07:29:41;;;;;;;20.85;11.82;;;5.60;83.00;;;;;;5071849;28;20211;-59
2022/01/23 07:32:09;;;;;;;20.10;11.38;;;5.60;82.90;;;;;;5073390;28;20215;-60
2022/01/23 07:34:37;;;;;;;21.40;12.65;;;5.60;83.10;;;;;;5073300;28;20223;-58
2022/01/23 07:37:05;;;;;;;23.38;12.02;;;5.60;83.10;;;;;;5073265;28;20200;-59
2022/01/23 07:39:32;;;;;;;18.02;11.00;;;5.50;83.40;;;;;;5073234;28;20208;-59
2022/01/23 07:41:59;;;;;;;19.30;12.23;;;5.60;83.50;;;;;;5073280;28;20624;-58
2022/01/23 07:44:25;;;;;;;24.55;12.07;;;5.50;83.10;;;;;;5071544;28;20201;-59
2022/01/23 07:46:52;;;;;;;24.20;12.90;;;5.50;83.50;;;;;;5073029;28;20243;-58
2022/01/23 07:49:19;;;;;;;22.50;13.43;;;5.60;83.70;;;;;;5073039;28;20681;-59
2022/01/23 07:51:47;;;;;;;25.10;13.85;;;5.60;83.40;;;;;;5073103;28;20567;-60
2022/01/23 07:54:14;;;;;;;24.48;13.18;;;5.50;83.00;;;;;;5073025;28;20209;-57
2022/01/23 07:56:42;;;;;;;22.30;12.85;;;5.50;83.30;;;;;;5073024;28;20205;-58
2022/01/23 07:59:09;;;;;;;22.80;12.95;;;5.50;83.80;;;;;;5071393;28;20315;-60
2022/01/23 08:01:39;;;;;;;24.15;13.80;;;5.60;83.60;;;;;;5072980;28;20207;-57
2022/01/23 08:04:06;;;;;;;23.92;13.10;;;5.50;83.50;;;;;;5072959;28;20266;-59
2022/01/23 08:06:39;;;;;;;23.70;12.25;;;5.40;84.00;;;;;;5072843;28;20710;-60
2022/01/23 08:09:07;;;;;;;25.40;12.27;;;5.50;84.40;;;;;;5072846;28;20204;-59
2022/01/23 08:11:35;;;;;;;23.30;12.32;;;5.60;84.40;;;;;;5072620;28;20224;-60
2022/01/23 08:14:02;;;;;;;25.80;13.88;;;5.60;84.30;;;;;;5071388;28;20366;-60
2022/01/23 08:16:29;;;;;;;21.73;12.45;;;5.60;83.80;;;;;;5072828;28;20211;-57
2022/01/23 08:18:56;;;;;;;23.33;12.82;;;5.70;84.10;;;;;;5072713;28;20232;-60
2022/01/23 08:21:22;;;;;;;24.25;12.80;;;5.70;84.20;;;;;;5072689;28;20240;-57
2022/01/23 08:23:52;;;;;;;24.52;13.00;;;5.80;84.10;;;;;;5072734;28;20208;-60
2022/01/23 08:26:21;;;;;;;24.80;13.15;;;5.90;84.10;;;;;;5072632;28;20229;-60
2022/01/23 08:28:48;;;;;;;25.80;14.30;;;5.90;83.70;;;;;;5074311;28;20212;-60
2022/01/23 08:31:15;;;;;;;24.70;12.70;;;5.90;83.70;;;;;;5076574;28;20196;-60
2022/01/23 08:33:42;;;;;;;30.45;14.57;;;6.00;83.50;;;;;;5076711;28;20300;-60
2022/01/23 08:36:09;;;;;;;24.08;13.82;;;6.00;83.20;;;;;;5076877;28;20211;-59
2022/01/23 08:38:36;;;;;;;27.58;14.98;;;6.00;83.50;;;;;;5076518;28;20201;-60
2022/01/23 08:43:50;;;;;;;20.77;12.48;;;6.00;83.30;;;;;;5075217;28;20200;-59
2022/01/23 08:46:17;;;;;;;23.50;12.60;;;6.10;83.30;;;;;;5076267;28;20207;-59
2022/01/23 08:48:44;;;;;;;26.60;13.57;;;6.10;83.00;;;;;;5076400;28;20200;-59
2022/01/23 08:51:11;;;;;;;25.98;14.00;;;6.20;83.10;;;;;;5076291;28;20207;-59
2022/01/23 08:53:38;;;;;;;27.42;14.80;;;6.10;82.90;;;;;;5076368;28;20203;-59
2022/01/23 08:56:05;;;;;;;23.50;13.68;;;6.10;82.90;;;;;;5076343;28;20196;-60
2022/01/23 08:58:32;;;;;;;26.23;14.55;;;6.20;82.90;;;;;;5076131;28;20304;-57
2022/01/23 09:01:00;;;;;;;26.98;15.50;;;6.20;82.70;;;;;;5074777;28;20201;-59
2022/01/23 09:03:27;;;;;;;29.55;16.08;;;6.00;83.00;;;;;;5076128;28;20295;-59
2022/01/23 09:05:53;;;;;;;31.33;15.45;;;6.10;83.20;;;;;;5076016;28;20226;-60
2022/01/23 09:08:21;;;;;;;32.45;16.70;;;6.10;83.10;;;;;;5075954;28;20231;-60
2022/01/23 09:10:57;;;;;;;26.20;15.15;;;6.20;83.20;;;;;;5075890;28;20240;-59
2022/01/23 09:13:39;;;;;;;26.70;14.38;;;6.30;83.20;;;;;;5075901;28;20203;-59
2022/01/23 09:16:07;;;;;;;28.33;15.45;;;6.30;83.10;;;;;;5074653;28;20666;-59
2022/01/23 09:18:34;;;;;;;28.92;14.73;;;6.30;82.70;;;;;;5075844;28;20291;-59
2022/01/23 09:21:02;;;;;;;25.15;14.23;;;6.30;82.80;;;;;;5075919;28;20211;-61
2022/01/23 09:23:28;;;;;;;28.90;15.18;;;6.30;82.80;;;;;;5075789;28;20296;-59
2022/01/23 09:25:57;;;;;;;29.00;15.60;;;6.40;82.70;;;;;;5075780;28;20208;-59
2022/01/23 09:28:31;;;;;;;25.90;14.80;;;6.40;82.30;;;;;;5075629;28;20567;-60
2022/01/23 09:30:58;;;;;;;28.48;16.02;;;6.40;82.80;;;;;;5074063;28;20208;-60
2022/01/23 09:33:27;;;;;;;25.75;13.35;;;6.20;82.60;;;;;;5075639;28;20201;-59
2022/01/23 09:35:54;;;;;;;26.73;15.07;;;6.30;83.00;;;;;;5075611;28;20215;-60
2022/01/23 09:38:21;;;;;;;30.98;16.15;;;6.40;83.10;;;;;;5075472;28;20200;-58
2022/01/23 09:40:51;;;;;;;24.23;14.25;;;6.40;82.50;;;;;;5074772;28;20197;-60
2022/01/23 09:43:20;;;;;;;23.67;14.20;;;6.30;82.90;;;;;;5075269;28;20219;-58
2022/01/23 09:45:50;;;;;;;23.67;14.45;;;6.40;83.00;;;;;;5073938;28;20197;-60
2022/01/23 09:48:18;;;;;;;25.88;16.08;;;6.40;82.00;;;;;;5075250;28;20236;-58
2022/01/23 09:50:48;;;;;;;23.20;13.43;;;6.50;82.80;;;;;;5075227;28;20204;-59
2022/01/23 09:53:16;;;;;;;22.33;12.52;;;6.50;81.60;;;;;;5075285;28;20232;-59
2022/01/23 09:55:46;;;;;;;21.48;11.50;;;6.60;82.00;;;;;;5074981;28;20205;-57
2022/01/23 09:58:15;;;;;;;14.88;10.05;;;6.60;82.10;;;;;;5075027;28;20315;-59
2022/01/23 10:00:42;;;;;;;18.65;10.80;;;6.70;81.90;;;;;;5073687;28;20587;-56
2022/01/23 10:03:09;;;;;;;23.25;12.32;;;6.80;81.50;;;;;;5075117;28;20204;-61
2022/01/23 10:05:36;;;;;;;19.38;11.35;;;6.90;81.60;;;;;;5075027;28;20354;-57
2022/01/23 10:08:07;;;;;;;20.45;12.00;;;7.00;80.80;;;;;;5074920;28;20233;-55
2022/01/23 10:10:38;;;;;;;19.02;12.05;;;7.00;80.80;;;;;;5074699;28;20212;-59
2022/01/23 10:13:05;;;;;;;19.42;11.10;;;7.10;79.90;;;;;;5074830;28;20755;-57
2022/01/23 10:15:33;;;;;;;22.55;13.25;;;7.10;80.10;;;;;;5073363;28;20196;-60
2022/01/23 10:18:01;;;;;;;23.00;13.00;;;7.10;79.20;;;;;;5074728;28;20673;-59
2022/01/23 10:20:28;;;;;;;23.48;13.63;;;6.90;79.40;;;;;;5074801;28;20738;-56
2022/01/23 10:22:57;;;;;;;24.63;13.80;;;6.90;80.20;;;;;;5074627;28;20299;-59
2022/01/23 10:25:27;;;;;;;20.58;11.93;;;6.80;79.70;;;;;;5074629;28;20243;-59
2022/01/23 10:28:00;;;;;;;23.92;14.02;;;6.70;80.40;;;;;;5074522;28;20233;-58
2022/01/23 10:30:28;;;;;;;27.70;15.10;;;6.50;81.60;;;;;;5072985;28;20201;-59
2022/01/23 10:33:03;;;;;;;19.70;12.85;;;6.60;81.80;;;;;;5074521;28;20204;-60
2022/01/23 10:35:30;;;;;;;18.38;12.15;;;6.70;81.20;;;;;;5074326;28;20235;-60
2022/01/23 10:38:04;;;;;;;18.48;12.10;;;6.70;80.20;;;;;;5074267;28;20623;-58
2022/01/23 10:40:36;;;;;;;18.23;11.40;;;6.80;80.90;;;;;;5074283;28;20208;-59
2022/01/23 10:48:46;;;;;;;14.45;9.05;;;6.90;78.60;;;;;;5074095;28;20365;-60
2022/01/23 10:51:28;;;;;;;14.70;9.20;;;6.90;79.50;;;;;;5073059;28;20201;-58
2022/01/23 10:54:00;;;;;;;14.07;8.80;;;6.90;79.00;;;;;;5074063;28;20200;-59
2022/01/23 10:56:29;;;;;;;11.05;7.75;;;6.90;78.30;;;;;;5073842;28;20233;-58
2022/01/23 10:59:01;;;;;;;13.27;8.43;;;6.90;78.80;;;;;;5072607;28;20228;-60
2022/01/23 11:01:29;;;;;;;13.38;8.05;;;6.90;78.80;;;;;;5073751;28;20292;-59
2022/01/23 11:04:19;;;;;;;13.88;8.93;;;7.00;79.20;;;;;;5073782;28;20219;-58
2022/01/23 11:06:58;;;;;;;14.00;8.88;;;7.00;78.80;;;;;;5058441;28;20355;-58
2022/01/23 11:09:30;;;;;;;13.18;8.57;;;7.00;78.20;;;;;;5073651;28;20210;-60
2022/01/23 11:12:13;;;;;;;13.65;9.52;;;7.00;77.60;;;;;;5073544;28;20707;-59
2022/01/23 11:17:26;;;;;;;16.60;9.85;;;6.80;76.70;;;;;;5073564;28;20200;-58
2022/01/23 11:19:58;;;;;;;14.30;9.95;;;6.70;77.80;;;;;;5073501;28;20677;-58
2022/01/23 11:22:29;;;;;;;13.25;9.35;;;6.50;78.10;;;;;;5073485;28;20207;-59
2022/01/23 11:24:59;;;;;;;17.45;10.52;;;6.50;78.70;;;;;;5073365;28;20204;-60
2022/01/23 11:27:34;;;;;;;15.38;9.73;;;6.70;79.40;;;;;;5073283;28;20724;-60
2022/01/23 11:30:07;;;;;;;15.93;11.02;;;6.80;78.90;;;;;;5072037;28;20200;-59
2022/01/23 11:32:37;;;;;;;15.55;10.15;;;6.90;78.60;;;;;;5073273;28;20201;-60
2022/01/23 11:35:08;;;;;;;14.40;10.18;;;7.00;78.60;;;;;;5073203;28;20251;-59
2022/01/23 11:37:36;;;;;;;16.35;10.20;;;7.00;78.00;;;;;;5073221;28;20216;-60
2022/01/23 11:40:20;;;;;;;14.05;9.30;;;7.00;77.80;;;;;;5073089;28;20641;-59
2022/01/23 11:54:05;;;;;;;11.80;9.18;;;7.00;77.70;;;;;;5072712;28;20833;-60
2022/01/23 11:56:44;;;;;;;11.63;9.20;;;7.00;77.30;;;;;;5073138;28;20220;-56
2022/01/23 11:59:25;;;;;;;14.18;10.35;;;7.10;77.60;;;;;;5071663;28;20663;-59
2022/01/23 12:02:26;;;;;;;14.80;9.88;;;7.20;77.40;;;;;;5072728;28;20204;-59
2022/01/23 12:05:27;;;;;;;17.05;11.00;;;7.10;76.00;;;;;;5072901;28;20620;-58
2022/01/23 12:08:23;;;;;;;13.18;10.52;;;6.80;76.50;;;;;;5072677;28;20235;-59
2022/01/23 12:11:35;;;;;;;16.25;9.75;;;6.80;77.50;;;;;;5072611;28;20232;-56
2022/01/23 12:17:17;;;;;;;15.48;10.32;;;6.70;77.90;;;;;;5072202;28;20212;-59
2022/01/23 12:19:47;;;;;;;14.55;11.18;;;6.80;78.10;;;;;;5072540;28;20667;-58
2022/01/23 12:22:36;;;;;;;15.65;11.38;;;6.80;77.60;;;;;;5072822;28;20670;-56
2022/01/23 12:25:10;;;;;;;15.75;11.48;;;6.80;78.40;;;;;;5072678;28;20209;-60
2022/01/23 12:27:37;;;;;;;19.17;12.00;;;6.80;77.70;;;;;;5072575;28;20234;-58
2022/01/23 12:30:41;;;;;;;16.17;11.38;;;6.90;78.40;;;;;;5071038;28;20205;-59
2022/01/23 12:33:44;;;;;;;16.88;11.07;;;6.90;77.30;;;;;;5072552;28;20266;-59
2022/01/23 12:36:23;;;;;;;13.95;9.45;;;7.00;77.80;;;;;;5072618;28;20307;-58
2022/01/23 12:38:53;;;;;;;15.45;11.02;;;7.10;76.30;;;;;;5072505;28;20204;-59
2022/01/23 12:41:32;;;;;;;12.32;9.35;;;6.90;77.20;;;;;;5072442;28;20656;-60
2022/01/23 12:44:02;;;;;;;15.45;10.98;;;6.80;76.60;;;;;;5071174;28;20207;-60
2022/01/23 12:46:39;;;;;;;14.85;11.10;;;6.60;77.10;;;;;;5072345;28;20232;-59
2022/01/23 12:49:21;;;;;;;13.43;9.32;;;6.60;78.20;;;;;;5072192;28;20319;-59
2022/01/23 12:51:49;;;;;;;10.75;8.45;;;6.80;77.90;;;;;;5072455;28;20201;-60
2022/01/23 12:54:50;;;;;;;11.43;8.05;;;6.90;76.30;;;;;;5072314;28;20690;-59
2022/01/23 12:57:19;;;;;;;13.52;9.60;;;6.80;76.90;;;;;;5072133;28;20251;-58
2022/01/23 12:59:52;;;;;;;8.35;7.55;;;6.70;75.70;;;;;;5070943;28;20201;-59
2022/01/23 13:02:22;;;;;;;10.40;8.82;;;6.70;75.30;;;;;;5072255;28;20288;-60
2022/01/23 13:04:52;;;;;;;10.10;8.85;;;6.80;75.90;;;;;;5072266;28;20197;-60
2022/01/23 13:07:28;;;;;;;12.90;8.77;;;6.90;74.50;;;;;;5072159;28;20554;-60
2022/01/23 13:10:07;;;;;;;10.25;8.43;;;6.80;73.50;;;;;;5072147;28;20200;-59
2022/01/23 13:15:26;;;;;;;9.40;8.40;;;6.90;73.60;;;;;;5069754;28;20200;-60
2022/01/23 13:18:05;;;;;;;8.15;7.38;;;6.80;74.70;;;;;;5075822;28;20228;-59
2022/01/23 13:26:33;;;;;;;10.10;8.98;;;7.00;74.20;;;;;;5075729;28;20250;-60
2022/01/23 13:31:51;;;;;;;9.10;8.07;;;7.00;73.20;;;;;;5075506;28;20670;-59
2022/01/23 13:34:23;;;;;;;9.43;8.52;;;6.90;73.50;;;;;;5075606;28;20207;-58
2022/01/23 13:36:55;;;;;;;9.55;8.25;;;7.00;73.60;;;;;;5075464;28;20726;-60
2022/01/23 13:39:23;;;;;;;15.35;9.25;;;7.00;73.80;;;;;;5075476;28;20211;-60
2022/01/23 13:42:01;;;;;;;10.77;8.32;;;7.00;73.20;;;;;;5075434;28;20205;-60
2022/01/23 13:52:55;;;;;;;8.57;7.78;;;6.60;73.30;;;;;;5075312;28;20203;-58
2022/01/23 13:58:33;;;;;;;8.90;8.00;;;6.70;74.50;;;;;;5075166;28;20203;-57
2022/01/23 14:01:03;;;;;;;10.85;8.80;;;6.80;74.30;;;;;;5073619;28;20208;-56
2022/01/23 14:03:30;;;;;;;11.43;9.23;;;6.80;74.10;;;;;;5074943;28;20205;-58
2022/01/23 14:05:58;;;;;;;10.60;8.52;;;6.90;73.40;;;;;;5074972;28;20666;-57
2022/01/23 14:08:25;;;;;;;8.52;7.57;;;6.80;73.00;;;;;;5074855;28;20243;-57
2022/01/23 14:10:53;;;;;;;8.02;7.32;;;6.90;72.90;;;;;;5074872;28;20235;-57
2022/01/23 14:13:20;;;;;;;8.13;7.35;;;6.90;73.40;;;;;;5071974;28;20200;-54
2022/01/23 14:15:49;;;;;;;11.00;8.25;;;7.00;73.40;;;;;;5054485;28;20240;-56
2022/01/23 14:18:22;;;;;;;10.20;8.63;;;7.10;73.40;;;;;;5053941;28;20296;-57
2022/01/23 14:20:58;;;;;;;10.43;8.52;;;7.00;72.80;;;;;;5064557;28;20204;-56
2022/01/23 14:23:26;;;;;;;10.68;8.30;;;7.00;72.80;;;;;;5073919;28;20571;-58
2022/01/23 14:25:56;;;;;;;8.82;8.07;;;7.00;72.50;;;;;;5053886;28;20327;-57
2022/01/23 14:28:28;;;;;;;9.13;8.23;;;7.00;72.40;;;;;;5053803;28;20235;-57
2022/01/23 14:30:58;;;;;;;9.57;8.68;;;7.00;72.80;;;;;;5052327;28;20205;-57
2022/01/23 14:33:29;;;;;;;8.70;7.80;;;7.00;72.40;;;;;;5067908;28;20209;-56
2022/01/23 14:35:58;;;;;;;8.35;7.55;;;6.80;70.60;;;;;;5073811;28;20579;-54
2022/01/23 14:38:26;;;;;;;7.90;7.20;;;6.60;72.20;;;;;;5073683;28;20667;-57
2022/01/23 14:40:58;;;;;;;8.13;7.32;;;6.60;71.40;;;;;;5073491;28;20223;-56
2022/01/23 14:43:34;;;;;;;8.52;7.72;;;6.60;72.40;;;;;;5073527;28;20212;-56
2022/01/23 14:46:04;;;;;;;7.53;6.95;;;6.60;72.50;;;;;;5072081;28;20358;-56
2022/01/23 14:48:33;;;;;;;6.13;5.53;;;6.50;71.80;;;;;;5073435;28;20239;-57
2022/01/23 14:51:04;;;;;;;7.75;6.70;;;6.40;72.00;;;;;;5073455;28;20196;-55
2022/01/23 14:53:31;;;;;;;6.55;5.97;;;6.50;72.70;;;;;;5073343;28;20296;-56
2022/01/23 14:56:02;;;;;;;7.38;6.78;;;6.50;72.70;;;;;;5073275;28;20579;-58
2022/01/23 14:58:31;;;;;;;6.82;6.43;;;6.60;71.00;;;;;;5073425;28;20211;-57
2022/01/23 15:00:58;;;;;;;7.20;6.60;;;6.60;72.10;;;;;;5071748;28;20242;-57
2022/01/23 15:03:28;;;;;;;7.70;7.00;;;6.60;71.30;;;;;;5073332;28;20211;-58
2022/01/23 15:05:55;;;;;;;6.78;6.25;;;6.60;71.00;;;;;;5073200;28;20215;-58
2022/01/23 15:08:25;;;;;;;7.07;6.57;;;6.50;70.30;;;;;;5072964;28;20589;-58
2022/01/23 15:10:54;;;;;;;7.50;6.90;;;6.40;70.90;;;;;;5072772;28;20311;-57
2022/01/23 15:13:22;;;;;;;7.07;6.50;;;6.40;71.70;;;;;;5073174;28;20207;-56
2022/01/23 15:15:50;;;;;;;7.00;6.50;;;6.40;71.60;;;;;;5071598;28;20205;-55
2022/01/23 15:18:18;;;;;;;6.70;6.20;;;6.50;72.30;;;;;;5072953;28;20207;-57
2022/01/23 15:20:45;;;;;;;6.65;6.15;;;6.60;72.10;;;;;;5072996;28;20207;-57
2022/01/23 15:23:13;;;;;;;7.10;6.60;;;6.50;71.00;;;;;;5072999;28;20205;-57
2022/01/23 15:25:42;;;;;;;5.85;5.35;;;6.50;71.00;;;;;;5054818;28;20210;-57
2022/01/23 15:28:09;;;;;;;6.90;6.40;;;6.40;71.40;;;;;;5052793;28;20687;-54
2022/01/23 15:30:37;;;;;;;6.18;5.78;;;6.40;70.80;;;;;;5051456;28;20207;-57
2022/01/23 15:33:06;;;;;;;6.65;6.10;;;6.40;70.40;;;;;;5052685;28;20216;-56
2022/01/23 15:35:34;;;;;;;6.65;6.15;;;6.40;71.20;;;;;;5052577;28;20212;-56
2022/01/23 15:38:02;;;;;;;7.60;6.90;;;6.40;71.70;;;;;;5051697;28;20236;-54
2022/01/23 15:40:29;;;;;;;7.60;6.88;;;6.50;71.60;;;;;;5052411;28;20205;-58
2022/01/23 15:42:57;;;;;;;6.85;6.35;;;6.60;71.60;;;;;;5052450;28;20216;-57
2022/01/23 15:45:25;;;;;;;7.30;6.70;;;6.60;71.20;;;;;;5051230;28;20205;-56
2022/01/23 15:47:53;;;;;;;7.82;7.22;;;6.50;71.30;;;;;;5052464;28;20288;-56
2022/01/23 15:50:20;;;;;;;7.40;6.80;;;6.50;71.60;;;;;;5052116;28;20233;-56
2022/01/23 15:52:48;;;;;;;7.18;6.45;;;6.60;71.70;;;;;;5052239;28;20613;-57